Time;durP1;ratioP1;P1;durP2;ratioP2;P2;SDS_P1;SDS_P2;PMS_P1;PMS_P2;Temp;Humidity;BMP_temperature;BMP_pressure;BME280_temperature;BME280_humidity;BME280_pressure;Samples;Min_cycle;Max_cycle;Signal;HPM_P1;HPM_P2
2023/06/30 00:02:17;;;;;;;8.10;2.88;;;;;;;;;;4968343;28;20179;-70
2023/06/30 00:04:42;;;;;;;5.13;3.22;;;;;;;;;;4982091;23;20239;-68
2023/06/30 00:07:09;;;;;;;13.23;3.03;;;;;;;;;;4970414;28;20247;-68
2023/06/30 00:09:34;;;;;;;6.22;3.00;;;;;;;;;;4973914;28;20745;-68
2023/06/30 00:12:00;;;;;;;7.13;2.95;;;;;;;;;;4960392;28;20260;-68
2023/06/30 00:14:25;;;;;;;8.65;2.75;;;;;;;;;;4966027;28;20204;-68
2023/06/30 00:16:50;;;;;;;6.45;2.45;;;;;;;;;;4963203;28;20195;-67
2023/06/30 00:19:18;;;;;;;12.13;4.32;;;;;;;;;;4960111;28;20212;-67
2023/06/30 00:21:45;;;;;;;8.63;2.78;;;;;;;;;;4965746;28;20234;-67
2023/06/30 00:24:13;;;;;;;15.43;4.30;;;;;;;;;;4964016;28;20192;-67
2023/06/30 00:26:38;;;;;;;4.75;2.95;;;;;;;;;;4964041;28;20259;-67
2023/06/30 00:29:03;;;;;;;6.68;2.92;;;;;;;;;;4967523;28;20280;-67
2023/06/30 00:31:29;;;;;;;7.32;2.90;;;;;;;;;;4968859;28;20565;-67
2023/06/30 00:33:55;;;;;;;7.03;3.55;;;;;;;;;;4961524;28;20231;-67
2023/06/30 00:36:20;;;;;;;6.47;2.60;;;;;;;;;;4965444;28;20218;-68
2023/06/30 00:38:45;;;;;;;7.95;2.67;;;;;;;;;;4965844;28;20226;-67
2023/06/30 00:41:11;;;;;;;6.70;3.58;;;;;;;;;;4959939;28;20207;-68
2023/06/30 00:43:38;;;;;;;6.53;2.75;;;;;;;;;;4963393;28;20712;-67
2023/06/30 00:46:03;;;;;;;6.72;4.00;;;;;;;;;;4969060;28;20185;-67
2023/06/30 00:48:29;;;;;;;3.65;2.67;;;;;;;;;;4960591;28;20179;-68
2023/06/30 00:50:54;;;;;;;8.68;3.35;;;;;;;;;;4968047;28;20561;-68
2023/06/30 00:53:19;;;;;;;8.88;3.08;;;;;;;;;;4963612;28;20584;-67
2023/06/30 00:55:45;;;;;;;7.25;3.55;;;;;;;;;;4960210;28;20727;-67
2023/06/30 00:58:10;;;;;;;7.50;3.10;;;;;;;;;;4968267;28;20177;-67
2023/06/30 01:00:35;;;;;;;6.78;3.35;;;;;;;;;;4958495;28;20200;-67
2023/06/30 01:03:09;;;;;;;13.68;3.45;;;;;;;;;;4963014;28;20270;-69
2023/06/30 01:05:48;;;;;;;7.65;3.55;;;;;;;;;;4967731;28;20246;-67
2023/06/30 01:08:27;;;;;;;7.82;3.78;;;;;;;;;;4964669;28;20176;-67
2023/06/30 01:10:54;;;;;;;5.07;2.78;;;;;;;;;;4971797;28;20188;-68
2023/06/30 01:13:20;;;;;;;8.07;4.22;;;;;;;;;;4968636;28;20675;-67
2023/06/30 01:15:46;;;;;;;6.13;3.80;;;;;;;;;;4970042;28;20210;-67
2023/06/30 01:18:12;;;;;;;5.72;3.72;;;;;;;;;;4971259;28;20315;-67
2023/06/30 01:20:40;;;;;;;8.10;3.47;;;;;;;;;;4966630;28;20393;-67
2023/06/30 01:23:11;;;;;;;6.80;3.63;;;;;;;;;;4971028;28;20222;-67
2023/06/30 01:25:36;;;;;;;7.63;3.38;;;;;;;;;;4973790;28;20666;-67
2023/06/30 01:28:02;;;;;;;7.05;4.05;;;;;;;;;;4970535;28;20192;-67
2023/06/30 01:30:29;;;;;;;6.28;3.70;;;;;;;;;;4970795;28;20191;-67
2023/06/30 01:32:54;;;;;;;5.43;3.15;;;;;;;;;;4970757;28;20188;-67
2023/06/30 01:35:20;;;;;;;5.60;3.47;;;;;;;;;;4973303;28;20601;-67
2023/06/30 01:37:45;;;;;;;6.82;3.50;;;;;;;;;;4976035;28;20607;-68
2023/06/30 01:40:11;;;;;;;5.73;3.77;;;;;;;;;;4977835;28;20203;-68
2023/06/30 01:42:36;;;;;;;6.25;3.22;;;;;;;;;;4976673;28;20674;-68
2023/06/30 01:45:02;;;;;;;6.65;3.05;;;;;;;;;;4976150;28;20212;-68
2023/06/30 01:47:28;;;;;;;6.03;3.50;;;;;;;;;;4975593;28;20203;-68
2023/06/30 01:49:53;;;;;;;9.95;3.85;;;;;;;;;;4976564;28;20639;-68
2023/06/30 01:52:18;;;;;;;5.27;3.00;;;;;;;;;;4974581;28;20188;-68
2023/06/30 01:54:44;;;;;;;6.63;3.40;;;;;;;;;;4973476;28;20680;-68
2023/06/30 01:57:10;;;;;;;9.83;3.37;;;;;;;;;;4974427;28;20176;-68
2023/06/30 01:59:36;;;;;;;8.10;3.60;;;;;;;;;;4978524;28;20215;-68
2023/06/30 02:02:01;;;;;;;11.13;3.73;;;;;;;;;;4974967;28;20184;-68
2023/06/30 02:04:26;;;;;;;6.10;3.43;;;;;;;;;;4972230;28;20223;-68
2023/06/30 02:06:51;;;;;;;5.57;3.50;;;;;;;;;;4974627;28;20184;-68
2023/06/30 02:09:16;;;;;;;7.60;3.40;;;;;;;;;;4973201;28;20216;-68
2023/06/30 02:11:42;;;;;;;5.87;3.57;;;;;;;;;;4969532;28;20192;-68
2023/06/30 02:14:07;;;;;;;11.17;3.10;;;;;;;;;;4969385;28;20211;-68
2023/06/30 02:16:33;;;;;;;6.27;3.63;;;;;;;;;;4966370;28;20173;-68
2023/06/30 02:18:58;;;;;;;7.33;3.43;;;;;;;;;;4975417;28;20176;-68
2023/06/30 02:21:25;;;;;;;11.13;3.73;;;;;;;;;;4969470;28;20670;-68
2023/06/30 02:23:51;;;;;;;9.90;3.33;;;;;;;;;;4972577;28;20214;-68
2023/06/30 02:26:16;;;;;;;7.97;3.73;;;;;;;;;;4970206;28;20634;-68
2023/06/30 02:28:41;;;;;;;6.77;3.47;;;;;;;;;;4971126;28;20189;-68
2023/06/30 02:31:07;;;;;;;7.20;4.07;;;;;;;;;;4971860;28;20531;-68
2023/06/30 02:33:32;;;;;;;6.83;3.00;;;;;;;;;;4973588;28;20228;-68
2023/06/30 02:35:57;;;;;;;4.70;2.93;;;;;;;;;;4972323;28;20231;-67
2023/06/30 02:38:22;;;;;;;5.00;2.97;;;;;;;;;;4973146;28;20188;-68
2023/06/30 02:40:47;;;;;;;7.57;3.57;;;;;;;;;;4973726;28;20629;-68
2023/06/30 02:43:13;;;;;;;6.13;3.17;;;;;;;;;;4970423;28;20522;-68
2023/06/30 02:45:38;;;;;;;6.37;3.33;;;;;;;;;;4975625;28;20188;-68
2023/06/30 02:48:03;;;;;;;4.53;3.10;;;;;;;;;;4973953;28;20189;-68
2023/06/30 02:50:29;;;;;;;5.27;3.00;;;;;;;;;;4975030;28;20176;-68
2023/06/30 02:52:55;;;;;;;7.63;3.43;;;;;;;;;;4972867;28;20568;-68
2023/06/30 02:55:21;;;;;;;8.73;3.07;;;;;;;;;;4974191;28;20196;-68
2023/06/30 02:57:46;;;;;;;6.40;2.97;;;;;;;;;;4971507;28;20307;-68
2023/06/30 03:00:12;;;;;;;5.27;3.13;;;;;;;;;;4970700;28;20282;-69
2023/06/30 03:02:37;;;;;;;4.73;3.30;;;;;;;;;;4967873;28;20232;-68
2023/06/30 03:05:02;;;;;;;5.40;2.90;;;;;;;;;;4972860;28;20216;-68
2023/06/30 03:07:27;;;;;;;6.33;3.00;;;;;;;;;;4972128;28;20180;-68
2023/06/30 03:09:53;;;;;;;5.90;3.40;;;;;;;;;;4972209;28;20590;-68
2023/06/30 03:12:18;;;;;;;7.43;4.10;;;;;;;;;;4972976;28;20180;-68
2023/06/30 03:14:44;;;;;;;7.00;3.20;;;;;;;;;;4968193;28;20726;-68
2023/06/30 03:17:09;;;;;;;5.17;3.63;;;;;;;;;;4972591;28;20176;-68
2023/06/30 03:19:34;;;;;;;5.17;3.60;;;;;;;;;;4972577;28;20259;-68
2023/06/30 03:21:59;;;;;;;6.40;3.47;;;;;;;;;;4970543;28;20183;-68
2023/06/30 03:24:25;;;;;;;4.17;3.23;;;;;;;;;;4976805;28;20210;-68
2023/06/30 03:26:50;;;;;;;4.57;3.40;;;;;;;;;;4972589;28;20231;-68
2023/06/30 03:29:15;;;;;;;5.70;3.50;;;;;;;;;;4966502;28;20199;-68
2023/06/30 03:31:40;;;;;;;4.97;3.73;;;;;;;;;;4971116;28;20185;-68
2023/06/30 03:34:05;;;;;;;4.43;3.00;;;;;;;;;;4972768;28;20204;-68
2023/06/30 03:36:31;;;;;;;5.00;3.57;;;;;;;;;;4965342;28;20181;-68
2023/06/30 03:38:56;;;;;;;7.07;2.93;;;;;;;;;;4972232;28;20235;-68
2023/06/30 03:41:21;;;;;;;6.63;4.00;;;;;;;;;;4969359;28;20255;-68
2023/06/30 03:43:46;;;;;;;11.33;4.07;;;;;;;;;;4965552;28;20247;-68
2023/06/30 03:46:12;;;;;;;8.97;3.83;;;;;;;;;;4971080;28;20173;-68
2023/06/30 03:48:37;;;;;;;6.23;3.30;;;;;;;;;;4967714;28;20172;-68
2023/06/30 03:51:02;;;;;;;6.73;4.03;;;;;;;;;;4971484;28;20172;-68
2023/06/30 03:53:27;;;;;;;11.13;4.30;;;;;;;;;;4972017;28;20401;-68
2023/06/30 03:55:53;;;;;;;9.00;3.87;;;;;;;;;;4968390;28;20291;-68
2023/06/30 03:58:18;;;;;;;9.00;4.43;;;;;;;;;;4972232;28;20177;-68
2023/06/30 04:00:43;;;;;;;6.80;3.83;;;;;;;;;;4968588;28;20242;-68
2023/06/30 04:03:08;;;;;;;7.47;3.70;;;;;;;;;;4972228;28;20169;-68
2023/06/30 04:05:34;;;;;;;6.40;3.33;;;;;;;;;;4969980;28;20220;-68
2023/06/30 04:07:59;;;;;;;5.40;3.50;;;;;;;;;;4972594;28;20595;-68
2023/06/30 04:10:24;;;;;;;5.77;3.43;;;;;;;;;;4970558;28;20259;-68
2023/06/30 04:12:50;;;;;;;5.37;4.07;;;;;;;;;;4966193;28;20545;-68
2023/06/30 04:15:15;;;;;;;4.47;3.00;;;;;;;;;;4967968;28;20728;-68
2023/06/30 04:17:40;;;;;;;6.80;3.53;;;;;;;;;;4968209;28;20188;-68
2023/06/30 04:20:09;;;;;;;5.43;3.40;;;;;;;;;;4974410;28;20575;-68
2023/06/30 04:22:35;;;;;;;5.35;3.28;;;;;;;;;;4960675;28;20197;-68
2023/06/30 04:25:00;;;;;;;5.75;3.65;;;;;;;;;;4970856;28;20255;-68
2023/06/30 04:27:26;;;;;;;8.05;3.85;;;;;;;;;;4966842;28;20173;-68
2023/06/30 04:29:51;;;;;;;9.38;4.30;;;;;;;;;;4967937;28;20176;-68
2023/06/30 04:32:16;;;;;;;7.93;3.42;;;;;;;;;;4969723;28;20184;-68
2023/06/30 04:34:41;;;;;;;5.13;3.40;;;;;;;;;;4970718;28;20216;-68
2023/06/30 04:37:07;;;;;;;13.38;3.35;;;;;;;;;;4971803;28;20183;-68
2023/06/30 04:39:32;;;;;;;4.78;3.03;;;;;;;;;;4969451;28;20306;-68
2023/06/30 04:41:59;;;;;;;4.55;2.38;;;;;;;;;;4975693;28;20176;-69
2023/06/30 04:44:24;;;;;;;8.27;2.63;;;;;;;;;;4973810;28;20282;-69
2023/06/30 04:46:49;;;;;;;9.68;2.50;;;;;;;;;;4965073;28;20639;-68
2023/06/30 04:49:15;;;;;;;4.35;2.63;;;;;;;;;;4969236;28;20172;-68
2023/06/30 04:51:40;;;;;;;6.43;2.90;;;;;;;;;;4970192;28;20219;-68
2023/06/30 04:54:05;;;;;;;7.18;2.92;;;;;;;;;;4969981;28;20250;-68
2023/06/30 04:56:30;;;;;;;6.00;2.53;;;;;;;;;;4969543;28;20192;-68
2023/06/30 04:58:56;;;;;;;7.40;2.45;;;;;;;;;;4967543;28;20321;-68
2023/06/30 05:01:21;;;;;;;6.75;2.40;;;;;;;;;;4969208;28;20299;-68
2023/06/30 05:03:46;;;;;;;4.50;2.00;;;;;;;;;;4970767;28;20319;-68
2023/06/30 05:06:11;;;;;;;5.68;2.15;;;;;;;;;;4971813;28;20184;-68
2023/06/30 05:08:36;;;;;;;6.30;2.17;;;;;;;;;;4974056;28;20189;-68
2023/06/30 05:11:02;;;;;;;6.47;2.47;;;;;;;;;;4971342;28;20188;-68
2023/06/30 05:13:27;;;;;;;4.80;2.40;;;;;;;;;;4970575;28;20180;-68
2023/06/30 05:15:52;;;;;;;4.75;2.17;;;;;;;;;;4969980;28;20713;-68
2023/06/30 05:18:17;;;;;;;5.53;2.22;;;;;;;;;;4970850;28;20184;-68
2023/06/30 05:20:42;;;;;;;2.13;1.75;;;;;;;;;;4970013;28;20204;-68
2023/06/30 05:23:08;;;;;;;5.13;3.00;;;;;;;;;;4967110;28;20188;-68
2023/06/30 05:25:33;;;;;;;3.53;2.20;;;;;;;;;;4970333;28;20736;-68
2023/06/30 05:27:58;;;;;;;5.25;1.85;;;;;;;;;;4968413;28;20658;-68
2023/06/30 05:30:23;;;;;;;6.38;1.92;;;;;;;;;;4971356;28;20180;-67
2023/06/30 05:32:48;;;;;;;3.75;2.40;;;;;;;;;;4975006;28;20181;-68
2023/06/30 05:35:14;;;;;;;8.70;2.70;;;;;;;;;;4975373;28;20204;-68
2023/06/30 05:37:39;;;;;;;11.30;2.90;;;;;;;;;;4978005;28;20259;-68
2023/06/30 05:40:04;;;;;;;9.02;2.10;;;;;;;;;;4973537;28;20200;-68
2023/06/30 05:42:30;;;;;;;3.47;1.88;;;;;;;;;;4983679;28;20606;-68
2023/06/30 05:44:55;;;;;;;6.22;2.15;;;;;;;;;;4975203;28;20192;-68
2023/06/30 05:47:20;;;;;;;5.15;2.38;;;;;;;;;;4979051;28;20208;-68
2023/06/30 05:49:46;;;;;;;4.60;2.53;;;;;;;;;;4972402;28;20176;-68
2023/06/30 05:52:11;;;;;;;7.32;2.50;;;;;;;;;;4983259;28;20552;-67
2023/06/30 05:54:36;;;;;;;6.40;3.20;;;;;;;;;;4978813;28;20630;-67
2023/06/30 05:57:02;;;;;;;7.70;2.40;;;;;;;;;;4978006;28;21277;-67
2023/06/30 05:59:28;;;;;;;4.80;2.47;;;;;;;;;;4977298;28;20184;-67
2023/06/30 06:01:54;;;;;;;6.53;3.17;;;;;;;;;;4967937;28;20540;-68
2023/06/30 06:04:19;;;;;;;7.93;2.80;;;;;;;;;;4966271;28;20734;-66
2023/06/30 06:06:44;;;;;;;7.15;2.55;;;;;;;;;;4984166;28;20173;-67
2023/06/30 06:09:10;;;;;;;6.80;2.90;;;;;;;;;;4981396;28;20184;-67
2023/06/30 06:11:35;;;;;;;3.88;2.38;;;;;;;;;;4979844;28;20176;-67
2023/06/30 06:14:00;;;;;;;9.88;2.95;;;;;;;;;;4981011;28;20299;-67
2023/06/30 06:16:26;;;;;;;9.75;2.47;;;;;;;;;;4971298;28;20260;-67
2023/06/30 06:18:51;;;;;;;8.15;3.40;;;;;;;;;;4982920;28;20184;-66
2023/06/30 06:21:16;;;;;;;3.75;2.35;;;;;;;;;;4977525;28;20363;-67
2023/06/30 06:23:42;;;;;;;5.25;3.13;;;;;;;;;;4980702;28;20240;-67
2023/06/30 06:26:07;;;;;;;8.73;3.05;;;;;;;;;;4982571;28;20434;-67
2023/06/30 06:28:32;;;;;;;4.35;2.40;;;;;;;;;;4978701;28;20192;-67
2023/06/30 06:30:57;;;;;;;4.88;2.22;;;;;;;;;;4975346;28;20571;-67
2023/06/30 06:33:22;;;;;;;6.75;2.28;;;;;;;;;;4975454;28;20177;-66
2023/06/30 06:35:52;;;;;;;4.35;2.40;;;;;;;;;;4975762;28;20239;-66
2023/06/30 06:38:17;;;;;;;5.30;2.28;;;;;;;;;;4971048;28;20681;-67
2023/06/30 06:40:43;;;;;;;5.55;1.95;;;;;;;;;;4974428;28;20200;-66
2023/06/30 06:43:09;;;;;;;7.95;2.60;;;;;;;;;;4972669;28;20168;-67
2023/06/30 06:45:34;;;;;;;6.57;1.80;;;;;;;;;;4975419;28;20200;-67
2023/06/30 06:48:18;;;;;;;4.45;2.15;;;;;;;;;;4974304;28;20720;-67
2023/06/30 06:50:44;;;;;;;4.60;2.42;;;;;;;;;;4973973;28;20185;-66
2023/06/30 06:53:09;;;;;;;5.53;2.17;;;;;;;;;;4971014;28;20813;-66
2023/06/30 06:55:35;;;;;;;6.13;2.25;;;;;;;;;;4971791;28;20200;-67
2023/06/30 06:58:00;;;;;;;5.03;2.00;;;;;;;;;;4973603;28;20598;-67
2023/06/30 07:00:25;;;;;;;2.70;1.65;;;;;;;;;;4971210;28;20208;-67
2023/06/30 07:02:51;;;;;;;3.42;1.50;;;;;;;;;;4971657;28;20208;-67
2023/06/30 07:05:16;;;;;;;4.10;1.42;;;;;;;;;;4973260;28;20205;-67
2023/06/30 07:07:42;;;;;;;3.47;1.40;;;;;;;;;;4973619;28;20625;-66
2023/06/30 07:10:07;;;;;;;2.10;1.30;;;;;;;;;;4966864;28;20235;-66
2023/06/30 07:12:32;;;;;;;5.07;1.88;;;;;;;;;;4972658;28;20184;-65
2023/06/30 07:14:57;;;;;;;6.40;1.77;;;;;;;;;;4969108;28;20665;-66
2023/06/30 07:17:23;;;;;;;6.28;1.52;;;;;;;;;;4971233;28;20625;-66
2023/06/30 07:19:48;;;;;;;3.03;1.08;;;;;;;;;;4972112;28;20625;-66
2023/06/30 07:22:14;;;;;;;4.45;1.77;;;;;;;;;;4971891;28;20182;-66
2023/06/30 07:24:39;;;;;;;4.57;1.40;;;;;;;;;;4976217;28;20200;-65
2023/06/30 07:27:04;;;;;;;3.27;1.73;;;;;;;;;;4967603;28;20566;-65
2023/06/30 07:29:29;;;;;;;6.38;1.58;;;;;;;;;;4968810;28;20457;-68
2023/06/30 07:31:55;;;;;;;6.22;1.40;;;;;;;;;;4972468;28;20646;-73
2023/06/30 07:34:23;;;;;;;4.10;1.50;;;;;;;;;;4967809;28;20699;-71
2023/06/30 07:36:48;;;;;;;4.05;1.60;;;;;;;;;;4972765;28;20226;-72
2023/06/30 07:39:13;;;;;;;2.22;1.50;;;;;;;;;;4975088;28;20196;-72
2023/06/30 07:41:39;;;;;;;2.88;1.70;;;;;;;;;;4960258;28;20207;-70
2023/06/30 07:44:04;;;;;;;2.97;1.65;;;;;;;;;;4970201;28;20244;-70
2023/06/30 07:46:30;;;;;;;2.70;1.38;;;;;;;;;;4961864;28;20255;-70
2023/06/30 07:48:55;;;;;;;7.00;1.70;;;;;;;;;;4973221;28;20189;-70
2023/06/30 07:51:20;;;;;;;5.63;1.38;;;;;;;;;;4964645;28;20192;-70
2023/06/30 07:53:45;;;;;;;2.33;1.48;;;;;;;;;;4972509;28;20183;-71
2023/06/30 07:56:11;;;;;;;3.22;1.70;;;;;;;;;;4972137;28;21860;-70
2023/06/30 07:58:36;;;;;;;2.17;1.38;;;;;;;;;;4961403;28;20185;-71
2023/06/30 08:01:02;;;;;;;6.22;1.65;;;;;;;;;;4963986;28;20291;-70
2023/06/30 08:03:27;;;;;;;3.30;1.40;;;;;;;;;;4966724;28;20249;-71
2023/06/30 08:05:52;;;;;;;4.17;1.40;;;;;;;;;;4967303;28;20701;-71
2023/06/30 08:08:17;;;;;;;2.70;1.30;;;;;;;;;;4965142;28;20426;-71
2023/06/30 08:10:42;;;;;;;4.75;1.30;;;;;;;;;;4971309;28;20626;-71
2023/06/30 08:13:08;;;;;;;2.47;1.42;;;;;;;;;;4968428;28;20802;-70
2023/06/30 08:15:33;;;;;;;2.22;1.25;;;;;;;;;;4970332;28;20204;-71
2023/06/30 08:17:58;;;;;;;2.53;1.10;;;;;;;;;;4959713;28;20192;-70
2023/06/30 08:20:24;;;;;;;6.45;1.60;;;;;;;;;;4963725;28;20736;-71
2023/06/30 08:22:49;;;;;;;5.35;1.30;;;;;;;;;;4972200;28;20192;-70
2023/06/30 08:25:15;;;;;;;3.25;1.00;;;;;;;;;;4966603;28;20224;-70
2023/06/30 08:27:41;;;;;;;3.63;1.20;;;;;;;;;;4968701;28;20536;-71
2023/06/30 08:30:06;;;;;;;3.63;1.27;;;;;;;;;;4965224;28;20176;-71
2023/06/30 08:32:31;;;;;;;2.33;1.00;;;;;;;;;;4963385;28;20184;-71
2023/06/30 08:34:57;;;;;;;1.58;1.15;;;;;;;;;;4966508;28;20635;-71
2023/06/30 08:37:22;;;;;;;3.60;1.17;;;;;;;;;;4967320;28;20184;-72
2023/06/30 08:39:47;;;;;;;2.00;0.90;;;;;;;;;;4971826;28;20200;-70
2023/06/30 08:42:13;;;;;;;2.00;1.30;;;;;;;;;;4973461;28;20183;-71
2023/06/30 08:44:43;;;;;;;1.85;0.95;;;;;;;;;;4968382;28;20504;-71
2023/06/30 08:47:09;;;;;;;2.50;0.88;;;;;;;;;;4969716;28;20196;-71
2023/06/30 08:49:34;;;;;;;4.18;1.50;;;;;;;;;;4967801;28;20176;-71
2023/06/30 08:52:00;;;;;;;4.55;1.33;;;;;;;;;;4969531;28;20191;-70
2023/06/30 08:54:25;;;;;;;2.90;1.25;;;;;;;;;;4988988;28;20250;-71
2023/06/30 08:56:51;;;;;;;3.97;1.40;;;;;;;;;;4973911;28;20681;-70
2023/06/30 08:59:16;;;;;;;5.28;1.25;;;;;;;;;;4975450;28;20211;-71
2023/06/30 09:01:43;;;;;;;2.03;1.40;;;;;;;;;;4969760;28;20180;-71
2023/06/30 09:04:09;;;;;;;2.58;1.10;;;;;;;;;;4976803;28;20215;-72
2023/06/30 09:06:35;;;;;;;6.80;2.75;;;;;;;;;;4971251;28;20255;-72
2023/06/30 09:09:09;;;;;;;2.35;2.08;;;;;;;;;;4971026;28;20173;-72
2023/06/30 09:11:35;;;;;;;3.25;1.55;;;;;;;;;;4973283;28;20183;-71
2023/06/30 09:14:02;;;;;;;3.10;1.63;;;;;;;;;;4971103;28;20294;-71
2023/06/30 09:16:31;;;;;;;1.90;1.25;;;;;;;;;;4968834;28;20212;-71
2023/06/30 09:18:56;;;;;;;5.22;1.60;;;;;;;;;;4973384;28;20203;-71
2023/06/30 09:21:22;;;;;;;2.85;1.30;;;;;;;;;;4968698;28;20208;-72
2023/06/30 09:23:47;;;;;;;2.47;1.65;;;;;;;;;;4971381;28;20219;-71
2023/06/30 09:26:16;;;;;;;3.53;1.58;;;;;;;;;;4973306;28;20560;-71
2023/06/30 09:28:44;;;;;;;2.92;1.58;;;;;;;;;;4975774;28;20234;-71
2023/06/30 09:31:10;;;;;;;4.93;1.80;;;;;;;;;;4971584;28;20193;-71
2023/06/30 09:33:36;;;;;;;3.08;1.92;;;;;;;;;;4970069;28;20211;-71
2023/06/30 09:36:02;;;;;;;5.15;1.73;;;;;;;;;;4974567;28;20259;-71
2023/06/30 09:38:29;;;;;;;2.85;1.45;;;;;;;;;;4970499;28;20184;-71
2023/06/30 09:40:54;;;;;;;3.35;1.48;;;;;;;;;;4971006;28;20200;-69
2023/06/30 09:43:21;;;;;;;4.43;1.17;;;;;;;;;;4971050;28;20559;-70
2023/06/30 09:45:47;;;;;;;4.85;1.50;;;;;;;;;;4972263;28;20278;-71
2023/06/30 09:48:13;;;;;;;3.85;1.40;;;;;;;;;;4973509;28;20172;-71
2023/06/30 09:50:38;;;;;;;4.20;1.52;;;;;;;;;;4967926;28;20180;-72
2023/06/30 09:53:03;;;;;;;3.25;1.75;;;;;;;;;;4967025;28;20184;-70
2023/06/30 09:55:28;;;;;;;4.22;1.60;;;;;;;;;;4964605;28;20202;-70
2023/06/30 09:57:55;;;;;;;3.75;1.30;;;;;;;;;;4967617;28;20745;-70
2023/06/30 10:00:20;;;;;;;5.70;1.40;;;;;;;;;;4970623;28;20540;-72
2023/06/30 10:03:00;;;;;;;3.88;1.52;;;;;;;;;;4973739;28;20658;-72
2023/06/30 10:05:25;;;;;;;3.20;1.75;;;;;;;;;;4972212;28;20228;-71
2023/06/30 10:07:50;;;;;;;3.93;1.40;;;;;;;;;;4970561;28;20198;-71
2023/06/30 10:10:15;;;;;;;3.40;1.60;;;;;;;;;;4974577;28;20410;-72
2023/06/30 10:12:43;;;;;;;1.90;1.27;;;;;;;;;;4969744;28;20654;-71
2023/06/30 10:15:09;;;;;;;1.45;1.10;;;;;;;;;;4967025;28;20220;-71
2023/06/30 10:17:34;;;;;;;5.53;1.48;;;;;;;;;;4972290;28;20685;-71
2023/06/30 10:20:00;;;;;;;1.92;1.30;;;;;;;;;;4964145;28;20212;-71
2023/06/30 10:22:25;;;;;;;3.30;1.55;;;;;;;;;;4967023;28;20194;-72
2023/06/30 10:24:51;;;;;;;5.60;1.60;;;;;;;;;;4973919;28;20624;-72
2023/06/30 10:27:18;;;;;;;3.78;1.40;;;;;;;;;;4969629;28;20199;-71
2023/06/30 10:29:44;;;;;;;3.03;1.50;;;;;;;;;;4968845;28;20176;-71
2023/06/30 10:32:09;;;;;;;2.35;0.90;;;;;;;;;;4971495;28;20183;-71
2023/06/30 10:34:35;;;;;;;1.75;1.50;;;;;;;;;;4974089;28;20518;-71
2023/06/30 10:37:01;;;;;;;1.75;1.45;;;;;;;;;;4972688;28;20184;-71
2023/06/30 10:39:26;;;;;;;2.92;1.40;;;;;;;;;;4968761;28;20185;-71
2023/06/30 10:41:55;;;;;;;2.28;1.30;;;;;;;;;;4971829;28;20182;-72
2023/06/30 10:44:20;;;;;;;2.08;1.50;;;;;;;;;;4973973;28;20204;-71
2023/06/30 10:46:52;;;;;;;2.75;1.23;;;;;;;;;;4972687;28;20184;-71
2023/06/30 10:49:32;;;;;;;2.53;1.30;;;;;;;;;;4971914;28;20546;-71
2023/06/30 10:51:58;;;;;;;2.17;1.30;;;;;;;;;;4982445;28;20263;-72
2023/06/30 10:54:24;;;;;;;4.97;1.48;;;;;;;;;;4972775;28;20207;-71
2023/06/30 10:56:49;;;;;;;1.90;1.00;;;;;;;;;;4972738;28;20582;-72
2023/06/30 10:59:24;;;;;;;3.00;1.25;;;;;;;;;;4971630;28;20267;-71
2023/06/30 11:02:08;;;;;;;2.72;1.38;;;;;;;;;;4970396;28;20187;-72
2023/06/30 11:04:37;;;;;;;3.90;1.42;;;;;;;;;;4983943;28;20204;-72
2023/06/30 11:07:02;;;;;;;2.50;1.30;;;;;;;;;;4973155;28;20173;-71
2023/06/30 11:09:51;;;;;;;4.13;1.40;;;;;;;;;;4972778;28;20211;-71
2023/06/30 11:12:16;;;;;;;3.22;1.55;;;;;;;;;;4969748;28;20272;-71
2023/06/30 11:14:55;;;;;;;5.43;1.33;;;;;;;;;;4966883;28;20267;-66
2023/06/30 11:17:21;;;;;;;4.85;1.48;;;;;;;;;;4970763;28;20172;-67
2023/06/30 11:20:02;;;;;;;2.17;1.40;;;;;;;;;;4971358;28;20231;-68
2023/06/30 11:22:30;;;;;;;1.92;1.50;;;;;;;;;;4962129;28;20172;-67
2023/06/30 11:24:55;;;;;;;2.85;1.58;;;;;;;;;;4970113;28;20201;-68
2023/06/30 11:27:21;;;;;;;2.97;1.55;;;;;;;;;;4963985;28;20262;-67
2023/06/30 11:29:47;;;;;;;3.08;1.45;;;;;;;;;;4964279;28;20173;-67
2023/06/30 11:32:15;;;;;;;5.45;1.90;;;;;;;;;;4968598;28;20188;-67
2023/06/30 11:34:41;;;;;;;4.20;1.90;;;;;;;;;;4967048;28;20204;-67
2023/06/30 11:37:06;;;;;;;1.90;1.52;;;;;;;;;;4969511;28;20192;-68
2023/06/30 11:39:31;;;;;;;5.55;2.13;;;;;;;;;;4969163;28;20230;-68
2023/06/30 11:41:56;;;;;;;5.53;1.75;;;;;;;;;;4969990;28;20258;-68
2023/06/30 11:44:22;;;;;;;4.63;1.77;;;;;;;;;;4965806;28;20196;-67
2023/06/30 11:46:47;;;;;;;1.87;1.20;;;;;;;;;;4965795;28;20513;-68
2023/06/30 11:49:12;;;;;;;6.75;1.58;;;;;;;;;;4971914;28;20817;-68
2023/06/30 11:51:38;;;;;;;6.55;1.67;;;;;;;;;;4969822;28;20286;-67
2023/06/30 11:54:04;;;;;;;2.97;1.85;;;;;;;;;;4962509;28;20249;-67
2023/06/30 11:56:29;;;;;;;6.32;1.50;;;;;;;;;;4969417;28;20192;-67
2023/06/30 11:58:54;;;;;;;3.97;1.80;;;;;;;;;;4971284;28;20180;-68
2023/06/30 12:01:20;;;;;;;3.72;2.22;;;;;;;;;;4969469;28;20458;-67
2023/06/30 12:03:45;;;;;;;2.55;1.60;;;;;;;;;;4972189;28;20184;-68
2023/06/30 12:06:10;;;;;;;2.78;1.60;;;;;;;;;;4978325;23;20224;-68
2023/06/30 12:08:38;;;;;;;4.93;1.60;;;;;;;;;;4970341;28;20172;-69
2023/06/30 12:11:03;;;;;;;2.17;1.52;;;;;;;;;;4966628;28;20176;-72
2023/06/30 12:13:29;;;;;;;3.85;1.15;;;;;;;;;;4970958;28;20243;-70
2023/06/30 12:15:58;;;;;;;7.78;2.13;;;;;;;;;;4969727;28;20207;-71
2023/06/30 12:18:36;;;;;;;3.25;1.70;;;;;;;;;;4966052;28;20181;-70
2023/06/30 12:21:01;;;;;;;5.20;1.70;;;;;;;;;;4965753;28;20208;-69
2023/06/30 12:23:27;;;;;;;2.50;1.42;;;;;;;;;;4974836;28;20183;-71
2023/06/30 12:25:52;;;;;;;5.95;1.70;;;;;;;;;;4971562;28;20203;-69
2023/06/30 12:28:17;;;;;;;3.58;1.15;;;;;;;;;;4972220;28;20247;-70
2023/06/30 12:30:43;;;;;;;4.18;1.40;;;;;;;;;;4971714;28;20537;-69
2023/06/30 12:33:09;;;;;;;4.10;2.00;;;;;;;;;;4963187;28;20185;-72
2023/06/30 12:35:38;;;;;;;4.63;1.80;;;;;;;;;;4969444;28;20203;-71
2023/06/30 12:38:08;;;;;;;5.47;1.52;;;;;;;;;;4967702;28;20609;-71
2023/06/30 12:40:33;;;;;;;6.32;2.17;;;;;;;;;;4969459;28;20729;-71
2023/06/30 12:42:58;;;;;;;3.08;1.63;;;;;;;;;;4973289;28;20176;-70
2023/06/30 12:45:24;;;;;;;3.38;2.00;;;;;;;;;;4963869;28;20209;-71
2023/06/30 12:47:49;;;;;;;3.92;1.98;;;;;;;;;;4964764;28;20179;-70
2023/06/30 12:50:14;;;;;;;4.55;2.15;;;;;;;;;;4967942;28;20185;-70
2023/06/30 12:52:40;;;;;;;5.13;1.85;;;;;;;;;;4968862;28;20188;-70
2023/06/30 12:55:06;;;;;;;8.07;3.33;;;;;;;;;;4969815;28;20212;-71
2023/06/30 12:57:31;;;;;;;6.72;2.47;;;;;;;;;;4969055;28;20260;-70
2023/06/30 12:59:56;;;;;;;3.67;2.10;;;;;;;;;;4965970;28;20288;-69
2023/06/30 13:02:21;;;;;;;3.07;1.80;;;;;;;;;;4973164;28;21854;-71
2023/06/30 13:04:47;;;;;;;5.03;2.10;;;;;;;;;;4974189;28;20449;-71
2023/06/30 13:07:12;;;;;;;4.90;2.20;;;;;;;;;;4977886;28;20406;-71
2023/06/30 13:09:38;;;;;;;3.95;1.85;;;;;;;;;;4976348;28;20752;-70
2023/06/30 13:12:05;;;;;;;2.45;1.75;;;;;;;;;;4969289;28;20655;-70
2023/06/30 13:14:31;;;;;;;3.45;2.03;;;;;;;;;;4968836;28;20702;-70
2023/06/30 13:16:56;;;;;;;3.10;2.00;;;;;;;;;;4966887;28;20184;-70
2023/06/30 13:19:23;;;;;;;2.70;1.90;;;;;;;;;;4970822;28;20238;-71
2023/06/30 13:21:48;;;;;;;3.60;1.70;;;;;;;;;;4967360;28;20720;-71
2023/06/30 13:24:14;;;;;;;1.98;1.27;;;;;;;;;;4963241;28;20176;-71
2023/06/30 13:26:40;;;;;;;4.65;1.10;;;;;;;;;;4974690;28;20259;-71
2023/06/30 13:29:05;;;;;;;2.55;1.23;;;;;;;;;;4972107;28;20203;-70
2023/06/30 13:31:30;;;;;;;1.50;1.10;;;;;;;;;;4972192;28;20665;-70
2023/06/30 13:33:56;;;;;;;1.85;1.30;;;;;;;;;;4970973;28;20192;-70
2023/06/30 13:36:21;;;;;;;2.47;1.40;;;;;;;;;;4970115;28;20200;-71
2023/06/30 13:38:46;;;;;;;3.47;1.50;;;;;;;;;;4978703;28;20624;-72
2023/06/30 13:41:12;;;;;;;2.60;1.50;;;;;;;;;;4964085;28;20715;-70
2023/06/30 13:43:37;;;;;;;1.75;1.35;;;;;;;;;;4978711;28;20190;-69
2023/06/30 13:46:02;;;;;;;4.00;1.95;;;;;;;;;;4971088;28;20207;-70
2023/06/30 13:48:27;;;;;;;7.55;2.00;;;;;;;;;;4969131;28;20211;-70
2023/06/30 13:50:53;;;;;;;4.38;1.90;;;;;;;;;;4966282;28;20622;-69
2023/06/30 13:53:18;;;;;;;3.72;1.50;;;;;;;;;;4972218;28;20176;-70
2023/06/30 13:55:43;;;;;;;6.18;1.60;;;;;;;;;;4967850;28;20267;-70
2023/06/30 13:58:09;;;;;;;2.50;1.57;;;;;;;;;;4972439;28;20538;-71
2023/06/30 14:00:35;;;;;;;2.10;1.40;;;;;;;;;;4969258;28;20453;-70
2023/06/30 14:03:00;;;;;;;3.42;1.80;;;;;;;;;;4970306;28;20199;-71
2023/06/30 14:05:26;;;;;;;2.97;1.73;;;;;;;;;;4977981;28;20204;-72
2023/06/30 14:07:51;;;;;;;2.55;2.05;;;;;;;;;;4973831;28;20177;-72
2023/06/30 14:10:16;;;;;;;3.78;2.35;;;;;;;;;;4968629;28;20568;-70
2023/06/30 14:12:41;;;;;;;3.45;2.10;;;;;;;;;;4969918;28;20264;-70
2023/06/30 14:15:07;;;;;;;3.70;1.90;;;;;;;;;;4973882;28;20223;-70
2023/06/30 14:17:32;;;;;;;4.63;2.47;;;;;;;;;;4971480;28;20441;-70
2023/06/30 14:19:57;;;;;;;5.07;2.13;;;;;;;;;;4970138;28;20226;-69
2023/06/30 14:22:22;;;;;;;3.90;2.27;;;;;;;;;;4975216;28;20421;-71
2023/06/30 14:24:48;;;;;;;5.78;2.42;;;;;;;;;;4974086;28;20445;-70
2023/06/30 14:27:13;;;;;;;4.95;2.00;;;;;;;;;;4973796;28;20609;-70
2023/06/30 14:29:42;;;;;;;3.38;2.38;;;;;;;;;;4971909;28;20196;-70
2023/06/30 14:32:08;;;;;;;3.65;1.88;;;;;;;;;;4974950;28;20173;-70
2023/06/30 14:34:33;;;;;;;3.17;1.80;;;;;;;;;;4976938;28;20676;-69
2023/06/30 14:36:58;;;;;;;3.08;1.88;;;;;;;;;;4975317;28;20183;-70